Aeroporto :
LOGIN :

Iscrizione | Disclaimer

   EN    FR    IT 

 










Sommario :    VFR   VFR Marginale   IFR   IFR Intensivo   IFR Molto Intensivo
Visibilità : 
Base nubi : 
>= 8 km
>= 3000ft
5 / 8 km
1000 / 3000 ft
1500m / 5 km
500 / 1000 ft
800 / 1500m
200 / 500 ft
< 800m
< 200 ft
Simboli :   Temporali  Nebbia  Neve Forte  Precipitazioni Forti  Vento > 20 kt
SIGMETs :   Varie  Temporali  Ghiacco  Turbolenza  Onda orograficha  Ceneri Vulcaniche







- Altitudine del aeroporto : 79 ft
- Codice IATA : SPU


LDSP - Split

ULTIMO METAR :
  • 192300Z AUTO VRB02KT 9999 -SHRA FEW019/// SCT046/// BKN064/// 15/14 Q1006

METARs OBSOLETI :
  • 192230Z AUTO VRB01KT 9999 -SHRA FEW020/// BKN023/// BKN032/// 15/13 Q1006
  • 192200Z 23004KT 9999 -RA SCT020 BKN040 16/13 Q1006 NOSIG
  • 192130Z 17003KT 140V200 9999 SCT022 BKN040 16/13 Q1006 NOSIG
  • 192100Z 19003KT 160V220 9999 FEW022 BKN045 16/14 Q1006 TEMPO 32008KT
  • 192030Z 19004KT 130V220 9999 VCTS FEW020 FEW025CB SCT044 17/14 Q1005 BECMG 32008KT FEW020 SCT040

TAF TAF LDSP
Valido dal 19 a 18 ore il 20 a 18 ore UTC


191725Z 1918/2018 12006KT 9999 FEW020 SCT040 TX19/2013Z TN13/2004Z
PROB30
TEMPO 1918/2002 22008KT 4000 SHRA FEW020TCU BKN030
TEMPO 2002/2005 31012KT
Nessun NOTAM noto per questo aeroporto.



MetMap, La meteo Aeronautica in un colpo d'occhio ! - Copyright ORBIFLY Dicembre 2007 - Disclaimer

ORBIFLY MET'MAP TEAM :

Programmazione e sviluppo : Alexandra Zaïnal
Concezione e sviluppo : Baudouin d'Aumeries
Co-Programmazione e sviluppo : Marc-Olivier Méhu
Supporto tecnico e logistico : Manuel Goepfert
Aiuto per la traduzione : Arnaldo La Scala

Contatto : metmap@orbifly.com




FONTI E CREDITI :

   NOAA